createdAt,value
2023-02-08T00:00:21.397Z,18.80
2023-02-08T00:01:21.596Z,19.10
2023-02-08T00:02:21.786Z,18.70
2023-02-08T00:03:21.899Z,20.90
2023-02-08T00:04:22.090Z,21.80
2023-02-08T00:05:22.257Z,20.10
2023-02-08T00:06:22.430Z,19.90
2023-02-08T00:07:22.605Z,20.00
2023-02-08T00:08:22.770Z,19.80
2023-02-08T00:09:22.940Z,19.60
2023-02-08T00:10:23.129Z,19.80
2023-02-08T00:11:23.273Z,19.70
2023-02-08T00:12:23.428Z,20.30
2023-02-08T00:13:23.606Z,20.00
2023-02-08T00:14:23.754Z,21.10
2023-02-08T00:15:23.969Z,18.50
2023-02-08T00:16:24.133Z,18.80
2023-02-08T00:17:24.281Z,20.40
2023-02-08T00:18:24.461Z,19.00
2023-02-08T00:19:24.614Z,20.10
2023-02-08T00:20:24.818Z,18.00
2023-02-08T00:21:24.990Z,19.70
2023-02-08T00:22:25.156Z,20.90
2023-02-08T00:23:25.323Z,20.60
2023-02-08T00:24:25.483Z,20.10
2023-02-08T00:25:25.683Z,20.30
2023-02-08T00:26:25.835Z,20.70
2023-02-08T00:27:26.006Z,19.20
2023-02-08T00:28:26.224Z,18.90
2023-02-08T00:29:26.367Z,19.60
2023-02-08T00:30:26.531Z,18.80
2023-02-08T00:31:26.748Z,18.70
2023-02-08T00:32:26.845Z,19.90
2023-02-08T00:33:27.035Z,19.30
2023-02-08T00:34:27.175Z,19.70
2023-02-08T00:35:27.371Z,19.80
2023-02-08T00:36:27.531Z,20.60
2023-02-08T00:37:27.700Z,19.00
2023-02-08T00:38:27.856Z,19.10
2023-02-08T00:39:28.022Z,17.90
2023-02-08T00:40:28.234Z,18.90
2023-02-08T00:41:28.364Z,19.50
2023-02-08T00:42:28.535Z,20.20
2023-02-08T00:43:28.693Z,18.60
2023-02-08T00:44:28.855Z,19.20
2023-02-08T00:45:29.062Z,19.60
2023-02-08T00:46:29.248Z,19.80
2023-02-08T00:47:29.389Z,19.50
2023-02-08T00:48:29.565Z,20.50
2023-02-08T00:49:29.723Z,19.80
2023-02-08T00:50:29.895Z,17.60
2023-02-08T00:51:30.069Z,20.00
2023-02-08T00:52:30.229Z,19.10
2023-02-08T00:53:30.409Z,19.90
2023-02-08T00:54:30.567Z,19.70
2023-02-08T00:55:30.752Z,20.20
2023-02-08T00:56:30.911Z,19.10
2023-02-08T00:57:31.090Z,18.60
2023-02-08T00:58:31.239Z,18.40
2023-02-08T00:59:31.411Z,19.50
2023-02-08T01:00:31.626Z,17.50
2023-02-08T01:01:31.742Z,19.30
2023-02-08T01:02:31.923Z,18.50
2023-02-08T01:03:32.105Z,17.90
2023-02-08T01:04:32.273Z,20.70
2023-02-08T01:05:32.443Z,18.90
2023-02-08T01:06:32.603Z,17.60
2023-02-08T01:07:32.821Z,21.20
2023-02-08T01:08:32.962Z,21.80
2023-02-08T01:09:33.121Z,19.10
2023-02-08T01:10:33.318Z,20.60
2023-02-08T01:11:33.454Z,20.80
2023-02-08T01:12:33.619Z,20.40
2023-02-08T01:13:33.778Z,21.00
2023-02-08T01:14:33.955Z,19.10
2023-02-08T01:15:34.130Z,19.20
2023-02-08T01:16:34.362Z,21.00
2023-02-08T01:17:34.456Z,21.10
2023-02-08T01:18:34.629Z,23.10
2023-02-08T01:19:34.798Z,21.60
2023-02-08T01:20:34.981Z,21.10
2023-02-08T01:21:35.144Z,20.80
2023-02-08T01:22:35.332Z,21.10
2023-02-08T01:23:35.501Z,19.90
2023-02-08T01:24:35.669Z,21.90
2023-02-08T01:25:35.857Z,21.70
2023-02-08T01:26:35.989Z,21.00
2023-02-08T01:27:36.143Z,20.40
2023-02-08T01:28:36.322Z,20.80
2023-02-08T01:29:36.477Z,20.90
2023-02-08T01:30:36.683Z,22.00
2023-02-08T01:31:36.877Z,21.00
2023-02-08T01:32:36.989Z,20.40
2023-02-08T01:33:37.162Z,19.10
2023-02-08T01:34:37.319Z,20.00
2023-02-08T01:35:37.478Z,20.80
2023-02-08T01:36:37.676Z,20.10
2023-02-08T01:37:37.828Z,21.50
2023-02-08T01:38:38.010Z,20.60
2023-02-08T01:39:38.176Z,20.70
2023-02-08T01:40:38.581Z,19.40
2023-02-08T01:41:38.539Z,21.50
2023-02-08T01:42:38.707Z,21.40
2023-02-08T01:43:38.869Z,22.20
2023-02-08T01:44:39.028Z,20.90
2023-02-08T01:45:39.215Z,20.80
2023-02-08T01:46:39.419Z,19.80
2023-02-08T01:47:39.542Z,19.70
2023-02-08T01:48:39.721Z,21.50
2023-02-08T01:49:39.860Z,20.90
2023-02-08T01:50:40.357Z,18.30
2023-02-08T01:51:40.216Z,21.20
2023-02-08T01:52:40.379Z,19.60
2023-02-08T01:53:40.540Z,19.40
2023-02-08T01:54:40.739Z,20.30
2023-02-08T01:55:40.882Z,21.60
2023-02-08T01:56:41.081Z,21.00
2023-02-08T01:57:41.229Z,19.80
2023-02-08T01:58:41.417Z,20.60
2023-02-08T01:59:41.573Z,19.90
2023-02-08T02:00:42.130Z,19.80
2023-02-08T02:01:41.941Z,20.30
2023-02-08T02:02:42.073Z,19.50
2023-02-08T02:03:42.255Z,19.70
2023-02-08T02:04:42.471Z,18.90
2023-02-08T02:05:42.582Z,19.80
2023-02-08T02:06:42.770Z,21.50
2023-02-08T02:07:42.964Z,19.80
2023-02-08T02:08:43.131Z,19.50
2023-02-08T02:09:43.290Z,20.40
2023-02-08T02:10:43.607Z,19.20
2023-02-08T02:11:43.682Z,18.50
2023-02-08T02:12:43.808Z,19.20
2023-02-08T02:13:43.967Z,18.50
2023-02-08T02:14:44.146Z,19.40
2023-02-08T02:15:44.329Z,17.50
2023-02-08T02:16:44.555Z,20.40
2023-02-08T02:17:44.660Z,17.70
2023-02-08T02:18:44.825Z,19.80
2023-02-08T02:19:44.992Z,18.90
2023-02-08T02:20:45.176Z,18.00
2023-02-08T02:21:45.335Z,18.00
2023-02-08T02:22:45.575Z,18.80
2023-02-08T02:23:45.667Z,20.40
2023-02-08T02:24:45.842Z,17.50
2023-02-08T02:25:45.994Z,18.90
2023-02-08T02:26:46.184Z,19.70
2023-02-08T02:27:46.357Z,19.90
2023-02-08T02:28:46.522Z,18.40
2023-02-08T02:29:46.697Z,19.90
2023-02-08T02:30:46.893Z,18.90
2023-02-08T02:31:47.051Z,20.50
2023-02-08T02:32:47.204Z,19.10
2023-02-08T02:33:47.364Z,19.20
2023-02-08T02:34:47.553Z,18.20
2023-02-08T02:35:47.766Z,19.20
2023-02-08T02:36:47.920Z,19.70
2023-02-08T02:37:48.052Z,18.20
2023-02-08T02:38:48.225Z,18.00
2023-02-08T02:39:48.395Z,19.30
2023-02-08T02:40:48.568Z,20.30
2023-02-08T02:41:48.736Z,19.20
2023-02-08T02:42:48.907Z,19.30
2023-02-08T02:43:49.095Z,19.20
2023-02-08T02:44:49.276Z,21.20
2023-02-08T02:45:49.474Z,19.10
2023-02-08T02:46:49.636Z,20.20
2023-02-08T02:47:49.805Z,19.80
2023-02-08T02:48:49.990Z,21.50
2023-02-08T02:49:50.158Z,21.90
2023-02-08T02:50:50.323Z,23.00
2023-02-08T02:51:50.484Z,20.20
2023-02-08T02:52:50.650Z,20.50
2023-02-08T02:53:50.852Z,21.00
2023-02-08T02:54:50.999Z,21.00
2023-02-08T02:55:51.160Z,23.00
2023-02-08T02:56:51.327Z,20.90
2023-02-08T02:57:51.519Z,20.60
2023-02-08T02:58:51.673Z,19.60
2023-02-08T02:59:51.851Z,20.50
2023-02-08T03:00:52.013Z,22.60
2023-02-08T03:01:52.190Z,22.20
2023-02-08T03:02:52.362Z,23.10
2023-02-08T03:03:52.552Z,21.70
2023-02-08T03:04:52.710Z,22.60
2023-02-08T03:05:52.867Z,19.90
2023-02-08T03:06:53.048Z,20.30
2023-02-08T03:07:53.200Z,19.90
2023-02-08T03:08:53.381Z,20.20
2023-02-08T03:09:53.557Z,22.30
2023-02-08T03:10:53.718Z,20.50
2023-02-08T03:11:53.887Z,21.70
2023-02-08T03:12:54.053Z,22.10
2023-02-08T03:13:54.233Z,21.30
2023-02-08T03:14:54.385Z,20.90
2023-02-08T03:15:54.562Z,21.70
2023-02-08T03:16:54.744Z,22.90
2023-02-08T03:17:54.929Z,22.70
2023-02-08T03:18:55.055Z,22.40
2023-02-08T03:19:55.225Z,22.20
2023-02-08T03:20:55.398Z,21.50
2023-02-08T03:21:55.561Z,23.60
2023-02-08T03:22:55.754Z,22.90
2023-02-08T03:23:55.909Z,21.20
2023-02-08T03:24:56.086Z,22.00
2023-02-08T03:25:56.241Z,22.60
2023-02-08T03:26:56.418Z,23.00
2023-02-08T03:27:56.609Z,21.60
2023-02-08T03:28:56.810Z,22.20
2023-02-08T03:29:56.921Z,22.20
2023-02-08T03:30:57.145Z,22.20
2023-02-08T03:31:57.362Z,23.00
2023-02-08T03:32:57.451Z,22.60
2023-02-08T03:33:57.599Z,22.10
2023-02-08T03:34:57.790Z,22.00
2023-02-08T03:35:57.951Z,22.50
2023-02-08T03:36:58.130Z,22.60
2023-02-08T03:37:58.300Z,22.90
2023-02-08T03:38:58.465Z,23.40
2023-02-08T03:39:58.632Z,22.90
2023-02-08T03:40:58.804Z,23.80
2023-02-08T03:41:58.954Z,22.80
2023-02-08T03:42:59.123Z,23.80
2023-02-08T03:43:59.284Z,24.40
2023-02-08T03:44:59.471Z,21.60
2023-02-08T03:45:59.665Z,24.20
2023-02-08T03:46:59.825Z,24.00
2023-02-08T03:47:59.992Z,22.90
2023-02-08T03:49:00.160Z,22.90
2023-02-08T03:50:00.336Z,22.70
2023-02-08T03:51:00.505Z,23.50
2023-02-08T03:52:00.663Z,25.00
2023-02-08T03:53:00.846Z,23.20
2023-02-08T03:54:00.994Z,26.30
2023-02-08T03:55:01.182Z,24.40
2023-02-08T03:56:01.354Z,24.30
2023-02-08T03:57:01.551Z,23.70
2023-02-08T03:58:01.690Z,23.80
2023-02-08T03:59:01.865Z,22.70
2023-02-08T04:00:02.027Z,25.70
2023-02-08T04:01:02.188Z,23.80
2023-02-08T04:02:02.360Z,23.80
2023-02-08T04:03:02.538Z,22.80
2023-02-08T04:04:02.700Z,22.90
2023-02-08T04:05:02.895Z,21.30
2023-02-08T04:06:03.036Z,22.50
2023-02-08T04:07:03.190Z,23.70
2023-02-08T04:08:03.349Z,24.20
2023-02-08T04:09:03.534Z,23.10
2023-02-08T04:10:03.710Z,23.40
2023-02-08T04:11:03.866Z,24.40
2023-02-08T04:12:04.046Z,22.60
2023-02-08T04:13:04.210Z,22.00
2023-02-08T04:14:04.370Z,24.30
2023-02-08T04:15:04.572Z,24.10
2023-02-08T04:16:04.806Z,23.90
2023-02-08T04:17:04.873Z,24.40
2023-02-08T04:18:05.032Z,23.20
2023-02-08T04:19:05.201Z,24.10
2023-02-08T04:20:05.396Z,23.40
2023-02-08T04:21:05.521Z,23.20
2023-02-08T04:22:05.713Z,23.00
2023-02-08T04:23:05.890Z,24.00
2023-02-08T04:24:06.048Z,23.80
2023-02-08T04:25:06.241Z,21.90
2023-02-08T04:26:06.393Z,23.80
2023-02-08T04:27:06.563Z,25.90
2023-02-08T04:28:06.750Z,25.10
2023-02-08T04:29:06.931Z,24.00
2023-02-08T04:30:07.100Z,22.60
2023-02-08T04:31:07.397Z,25.10
2023-02-08T04:32:07.434Z,24.60
2023-02-08T04:33:07.590Z,24.60
2023-02-08T04:34:07.759Z,23.10
2023-02-08T04:35:07.954Z,23.60
2023-02-08T04:36:08.116Z,24.80
2023-02-08T04:37:08.281Z,25.50
2023-02-08T04:38:08.470Z,23.80
2023-02-08T04:39:08.635Z,26.30
2023-02-08T04:40:08.807Z,24.10
2023-02-08T04:41:08.971Z,25.30
2023-02-08T04:42:09.171Z,25.30
2023-02-08T04:43:09.326Z,25.10
2023-02-08T04:44:09.475Z,23.30
2023-02-08T04:45:09.678Z,23.30
2023-02-08T04:46:09.870Z,25.80
2023-02-08T04:47:10.002Z,23.70
2023-02-08T04:48:11.909Z,24.90
2023-02-08T04:49:10.331Z,25.00
2023-02-08T04:50:10.512Z,26.50
2023-02-08T04:51:10.673Z,28.00
2023-02-08T04:52:10.836Z,26.80
2023-02-08T04:53:11.009Z,28.40
2023-02-08T04:54:11.168Z,27.30
2023-02-08T04:55:11.342Z,25.30
2023-02-08T04:56:11.497Z,25.50
2023-02-08T04:57:11.672Z,25.80
2023-02-08T04:58:11.844Z,26.40
2023-02-08T04:59:12.002Z,25.90
2023-02-08T05:00:12.164Z,25.90
2023-02-08T05:01:12.349Z,25.20
2023-02-08T05:02:12.522Z,27.20
2023-02-08T05:03:12.689Z,26.10
2023-02-08T05:04:12.863Z,27.70
2023-02-08T05:05:13.082Z,26.00
2023-02-08T05:06:13.204Z,27.40
2023-02-08T05:07:13.381Z,26.90
2023-02-08T05:08:13.550Z,26.40
2023-02-08T05:09:13.725Z,27.90
2023-02-08T05:10:13.891Z,26.00
2023-02-08T05:11:14.087Z,27.00
2023-02-08T05:12:14.226Z,25.80
2023-02-08T05:13:14.393Z,26.00
2023-02-08T05:14:14.551Z,27.30
2023-02-08T05:15:14.741Z,29.50
2023-02-08T05:16:14.921Z,30.40
2023-02-08T05:17:15.070Z,27.70
2023-02-08T05:18:15.241Z,27.10
2023-02-08T05:19:15.402Z,27.70
2023-02-08T05:20:15.624Z,29.70
2023-02-08T05:21:15.740Z,28.10
2023-02-08T05:22:15.901Z,26.20
2023-02-08T05:23:16.065Z,27.40
2023-02-08T05:24:16.243Z,26.60
2023-02-08T05:25:16.416Z,26.30
2023-02-08T05:26:16.607Z,26.60
2023-02-08T05:27:16.760Z,27.50
2023-02-08T05:28:17.015Z,27.90
2023-02-08T05:29:17.123Z,28.20
2023-02-08T05:30:17.306Z,27.90
2023-02-08T05:31:17.608Z,26.70
2023-02-08T05:32:17.657Z,25.90
2023-02-08T05:33:17.797Z,28.60
2023-02-08T05:34:17.981Z,27.60
2023-02-08T05:35:18.143Z,25.60
2023-02-08T05:36:18.318Z,25.80
2023-02-08T05:37:18.476Z,26.30
2023-02-08T05:38:18.671Z,26.50
2023-02-08T05:39:18.831Z,28.00
2023-02-08T05:40:18.997Z,27.80
2023-02-08T05:41:19.171Z,28.80
2023-02-08T05:42:19.356Z,27.80
2023-02-08T05:43:19.518Z,26.80
2023-02-08T05:44:19.706Z,27.80
2023-02-08T05:45:19.854Z,29.40
2023-02-08T05:46:20.122Z,29.10
2023-02-08T05:47:20.212Z,28.60
2023-02-08T05:48:20.436Z,28.60
2023-02-08T05:49:20.553Z,28.20
2023-02-08T05:50:20.713Z,26.50
2023-02-08T05:51:20.878Z,28.70
2023-02-08T05:52:21.049Z,29.80
2023-02-08T05:53:21.232Z,29.10
2023-02-08T05:54:21.389Z,27.20
2023-02-08T05:55:21.549Z,28.50
2023-02-08T05:56:21.735Z,32.70
2023-02-08T05:57:21.909Z,28.00
2023-02-08T05:58:22.069Z,32.60
2023-02-08T05:59:22.225Z,30.10
2023-02-08T06:00:22.447Z,29.60
2023-02-08T06:01:22.567Z,30.80
2023-02-08T06:02:22.761Z,30.20
2023-02-08T06:03:23.019Z,31.10
2023-02-08T06:04:23.114Z,31.80
2023-02-08T06:05:23.261Z,33.50
2023-02-08T06:06:23.426Z,33.60
2023-02-08T06:07:23.599Z,31.50
2023-02-08T06:08:23.780Z,31.70
2023-02-08T06:09:23.934Z,33.40
2023-02-08T06:10:24.136Z,32.70
2023-02-08T06:11:24.301Z,32.50
2023-02-08T06:12:24.459Z,31.00
2023-02-08T06:13:24.640Z,30.60
2023-02-08T06:14:24.801Z,33.60
2023-02-08T06:15:24.999Z,33.20
2023-02-08T06:16:25.194Z,33.00
2023-02-08T06:17:25.321Z,33.40
2023-02-08T06:18:25.489Z,34.00
2023-02-08T06:19:25.649Z,32.00
2023-02-08T06:20:25.826Z,32.30
2023-02-08T06:21:26.009Z,32.70
2023-02-08T06:22:26.181Z,34.00
2023-02-08T06:23:26.341Z,33.20
2023-02-08T06:24:26.514Z,34.10
2023-02-08T06:25:26.680Z,36.10
2023-02-08T06:26:26.861Z,34.30
2023-02-08T06:27:27.035Z,32.10
2023-02-08T06:28:27.230Z,34.30
2023-02-08T06:29:27.387Z,32.30
2023-02-08T06:30:27.553Z,32.00
2023-02-08T06:31:27.791Z,31.20
2023-02-08T06:32:27.954Z,32.00
2023-02-08T06:33:28.083Z,33.90
2023-02-08T06:34:28.265Z,33.30
2023-02-08T06:35:28.464Z,32.90
2023-02-08T06:36:28.629Z,32.80
2023-02-08T06:37:28.783Z,32.30
2023-02-08T06:38:28.959Z,32.90
2023-02-08T06:39:29.139Z,33.80
2023-02-08T06:40:29.316Z,32.30
2023-02-08T06:41:29.505Z,33.50
2023-02-08T06:42:29.697Z,31.60
2023-02-08T06:43:29.874Z,34.50
2023-02-08T06:44:30.048Z,34.00
2023-02-08T06:45:30.260Z,31.90
2023-02-08T06:46:30.429Z,33.00
2023-02-08T06:47:30.594Z,32.30
2023-02-08T06:48:30.745Z,33.30
2023-02-08T06:49:30.884Z,31.60
2023-02-08T06:50:31.069Z,32.50
2023-02-08T06:51:31.275Z,32.70
2023-02-08T06:52:31.435Z,30.30
2023-02-08T06:53:31.622Z,32.20
2023-02-08T06:54:31.795Z,33.20
2023-02-08T06:55:32.009Z,31.70
2023-02-08T06:56:32.177Z,32.60
2023-02-08T06:57:32.316Z,30.20
2023-02-08T06:58:32.515Z,34.30
2023-02-08T06:59:32.689Z,31.50
2023-02-08T07:00:32.898Z,34.20
2023-02-08T07:01:33.121Z,33.90
2023-02-08T07:02:33.248Z,32.70
2023-02-08T07:03:33.388Z,34.00
2023-02-08T07:04:33.572Z,32.00
2023-02-08T07:05:33.788Z,33.70
2023-02-08T07:06:33.946Z,33.60
2023-02-08T07:07:34.099Z,33.70
2023-02-08T07:08:34.341Z,32.90
2023-02-08T07:09:34.430Z,31.00
2023-02-08T07:10:34.605Z,33.10
2023-02-08T07:11:34.768Z,33.10
2023-02-08T07:12:34.968Z,31.40
2023-02-08T07:13:35.099Z,32.60
2023-02-08T07:14:35.275Z,33.60
2023-02-08T07:15:35.493Z,32.20
2023-02-08T07:16:35.646Z,32.90
2023-02-08T07:17:35.757Z,31.30
2023-02-08T07:18:35.931Z,32.40
2023-02-08T07:19:36.123Z,32.40
2023-02-08T07:20:36.282Z,35.70
2023-02-08T07:21:36.455Z,33.20
2023-02-08T07:22:36.623Z,32.70
2023-02-08T07:23:36.790Z,32.10
2023-02-08T07:24:36.964Z,33.70
2023-02-08T07:25:37.112Z,34.30
2023-02-08T07:26:37.298Z,34.30
2023-02-08T07:27:37.456Z,33.80
2023-02-08T07:28:37.666Z,33.70
2023-02-08T07:29:37.814Z,34.20
2023-02-08T07:30:37.992Z,34.20
2023-02-08T07:31:38.171Z,34.50
2023-02-08T07:32:38.307Z,35.00
2023-02-08T07:33:38.483Z,35.10
2023-02-08T07:34:38.665Z,35.40
2023-02-08T07:35:38.815Z,34.10
2023-02-08T07:36:38.999Z,34.60
2023-02-08T07:37:39.158Z,33.30
2023-02-08T07:38:39.369Z,33.60
2023-02-08T07:39:39.499Z,32.70
2023-02-08T07:40:39.864Z,32.70
2023-02-08T07:41:39.817Z,33.50
2023-02-08T07:42:40.008Z,33.20
2023-02-08T07:43:40.155Z,31.60
2023-02-08T07:44:40.334Z,32.50
2023-02-08T07:45:40.506Z,33.50
2023-02-08T07:46:40.665Z,31.00
2023-02-08T07:47:40.830Z,31.80
2023-02-08T07:48:41.004Z,35.50
2023-02-08T07:49:41.147Z,36.90
2023-02-08T07:50:41.655Z,27.50
2023-02-08T07:51:41.494Z,29.20
2023-02-08T07:52:41.702Z,32.10
2023-02-08T07:53:41.832Z,32.20
2023-02-08T07:54:42.006Z,31.20
2023-02-08T07:55:42.161Z,31.00
2023-02-08T07:56:42.336Z,29.70
2023-02-08T07:57:42.539Z,29.70
2023-02-08T07:58:42.724Z,31.80
2023-02-08T07:59:42.857Z,31.90
2023-02-08T08:00:43.055Z,33.80
2023-02-08T08:01:43.217Z,32.40
2023-02-08T08:02:43.384Z,31.60
2023-02-08T08:03:43.620Z,32.30
2023-02-08T08:04:43.752Z,31.80
2023-02-08T08:05:43.892Z,31.60
2023-02-08T08:06:44.085Z,34.30
2023-02-08T08:07:44.315Z,32.30
2023-02-08T08:08:44.447Z,33.10
2023-02-08T08:09:44.592Z,32.40
2023-02-08T08:10:44.779Z,34.60
2023-02-08T08:11:44.958Z,33.00
2023-02-08T08:12:45.167Z,32.40
2023-02-08T08:13:45.345Z,34.00
2023-02-08T08:14:45.465Z,34.40
2023-02-08T08:15:45.656Z,34.90
2023-02-08T08:16:45.850Z,35.00
2023-02-08T08:17:46.039Z,32.70
2023-02-08T08:18:46.192Z,31.40
2023-02-08T08:19:46.337Z,34.80
2023-02-08T08:20:46.525Z,32.60
2023-02-08T08:21:46.706Z,33.30
2023-02-08T08:22:46.931Z,33.00
2023-02-08T08:23:47.077Z,33.00
2023-02-08T08:24:47.248Z,31.80
2023-02-08T08:25:47.449Z,32.80
2023-02-08T08:26:47.623Z,32.20
2023-02-08T08:27:47.883Z,32.40
2023-02-08T08:28:48.014Z,31.60
2023-02-08T08:29:48.141Z,34.10
2023-02-08T08:30:48.427Z,34.80
2023-02-08T08:31:48.525Z,33.60
2023-02-08T08:32:48.681Z,31.70
2023-02-08T08:33:48.843Z,32.30
2023-02-08T08:34:49.019Z,31.60
2023-02-08T08:35:49.197Z,31.40
2023-02-08T08:36:49.378Z,32.20
2023-02-08T08:37:49.613Z,32.30
2023-02-08T08:38:49.748Z,32.30
2023-02-08T08:39:49.933Z,32.30
2023-02-08T08:40:50.129Z,29.90
2023-02-08T08:41:50.299Z,32.30
2023-02-08T08:42:50.517Z,32.80
2023-02-08T08:43:50.657Z,30.50
2023-02-08T08:44:50.840Z,29.20
2023-02-08T08:45:52.938Z,34.00
2023-02-08T08:46:51.198Z,30.30
2023-02-08T08:47:51.403Z,32.60
2023-02-08T08:48:51.572Z,31.40
2023-02-08T08:49:51.730Z,31.00
2023-02-08T08:50:51.905Z,30.20
2023-02-08T08:51:52.114Z,31.00
2023-02-08T08:52:52.273Z,32.40
2023-02-08T08:53:52.471Z,29.30
2023-02-08T08:54:52.612Z,30.00
2023-02-08T08:55:52.804Z,31.30
2023-02-08T08:56:52.977Z,32.00
2023-02-08T08:57:53.132Z,28.20
2023-02-08T08:58:53.312Z,28.60
2023-02-08T08:59:53.449Z,30.40
2023-02-08T09:00:53.647Z,30.40
2023-02-08T09:01:53.812Z,29.30
2023-02-08T09:02:54.000Z,29.20
2023-02-08T09:03:54.145Z,28.30
2023-02-08T09:04:54.327Z,31.00
2023-02-08T09:05:54.533Z,28.40
2023-02-08T09:06:54.704Z,31.10
2023-02-08T09:07:54.873Z,30.30
2023-02-08T09:08:55.032Z,29.70
2023-02-08T09:09:55.181Z,30.50
2023-02-08T09:10:55.380Z,28.50
2023-02-08T09:11:55.575Z,30.50
2023-02-08T09:12:55.752Z,28.30
2023-02-08T09:13:55.905Z,28.60
2023-02-08T09:14:56.100Z,29.70
2023-02-08T09:15:56.275Z,30.80
2023-02-08T09:16:56.455Z,29.40
2023-02-08T09:17:56.624Z,29.20
2023-02-08T09:18:56.771Z,28.80
2023-02-08T09:19:56.958Z,29.70
2023-02-08T09:20:57.160Z,30.10
2023-02-08T09:21:57.319Z,29.40
2023-02-08T09:22:57.528Z,27.50
2023-02-08T09:23:57.703Z,29.50
2023-02-08T09:24:57.843Z,29.70
2023-02-08T09:25:58.047Z,31.70
2023-02-08T09:26:58.217Z,29.50
2023-02-08T09:27:58.392Z,29.60
2023-02-08T09:28:58.543Z,29.50
2023-02-08T09:29:58.731Z,28.20
2023-02-08T09:30:59.020Z,23.10
2023-02-08T09:31:59.147Z,24.10
2023-02-08T09:32:59.278Z,24.90
2023-02-08T09:33:59.464Z,22.90
2023-02-08T09:34:59.619Z,23.60
2023-02-08T09:35:59.836Z,24.80
2023-02-08T09:37:00.007Z,25.40
2023-02-08T09:38:00.153Z,24.10
2023-02-08T09:39:00.334Z,27.90
2023-02-08T09:40:00.605Z,27.40
2023-02-08T09:41:00.727Z,28.80
2023-02-08T09:42:00.922Z,28.10
2023-02-08T09:43:01.062Z,28.50
2023-02-08T09:44:01.233Z,29.40
2023-02-08T09:45:01.433Z,30.80
2023-02-08T09:46:01.617Z,28.70
2023-02-08T09:47:01.803Z,29.80
2023-02-08T09:48:01.945Z,33.20
2023-02-08T09:49:02.134Z,25.00
2023-02-08T09:50:02.286Z,26.30
2023-02-08T09:51:02.479Z,23.80
2023-02-08T09:52:02.650Z,21.90
2023-02-08T09:53:02.838Z,24.90
2023-02-08T09:54:03.024Z,20.70
2023-02-08T09:55:03.186Z,24.50
2023-02-08T09:56:03.419Z,22.60
2023-02-08T09:57:03.568Z,25.50
2023-02-08T09:58:03.719Z,24.50
2023-02-08T09:59:03.894Z,26.20
2023-02-08T10:00:04.039Z,30.60
2023-02-08T10:01:06.012Z,34.40
2023-02-08T10:02:04.420Z,31.10
2023-02-08T10:03:04.650Z,29.80
2023-02-08T10:04:04.786Z,31.60
2023-02-08T10:05:04.920Z,33.10
2023-02-08T10:06:05.129Z,32.60
2023-02-08T10:07:05.270Z,31.20
2023-02-08T10:08:05.461Z,33.40
2023-02-08T10:09:05.629Z,32.60
2023-02-08T10:10:05.801Z,27.70
2023-02-08T10:11:09.306Z,29.30
2023-02-08T10:12:06.193Z,28.80
2023-02-08T10:13:06.350Z,31.30
2023-02-08T10:14:06.549Z,30.80
2023-02-08T10:15:06.680Z,31.20
2023-02-08T10:16:06.846Z,29.30
2023-02-08T10:17:07.002Z,31.60
2023-02-08T10:18:07.189Z,30.10
2023-02-08T10:19:07.316Z,30.80
2023-02-08T10:20:07.504Z,30.30
2023-02-08T10:21:07.676Z,29.60
2023-02-08T10:22:07.855Z,29.80
2023-02-08T10:23:08.011Z,31.40
2023-02-08T10:24:08.174Z,31.60
2023-02-08T10:25:08.327Z,31.80
2023-02-08T10:26:08.489Z,31.20
2023-02-08T10:27:08.684Z,33.00
2023-02-08T10:28:08.843Z,33.30
2023-02-08T10:29:08.968Z,31.80
2023-02-08T10:30:09.173Z,32.80
2023-02-08T10:31:09.464Z,31.20
2023-02-08T10:32:09.518Z,31.50
2023-02-08T10:33:09.663Z,32.90
2023-02-08T10:34:10.802Z,32.00
2023-02-08T10:35:10.008Z,29.90
2023-02-08T10:36:10.168Z,29.60
2023-02-08T10:37:10.345Z,30.20
2023-02-08T10:38:10.502Z,31.30
2023-02-08T10:39:10.680Z,30.90
2023-02-08T10:40:10.850Z,31.00
2023-02-08T10:41:11.035Z,32.00
2023-02-08T10:42:11.186Z,33.80
2023-02-08T10:43:11.358Z,32.90
2023-02-08T10:44:11.516Z,33.20
2023-02-08T10:45:22.784Z,32.50
2023-02-08T10:46:12.903Z,30.30
2023-02-08T10:47:11.993Z,33.50
2023-02-08T10:48:12.184Z,32.20
2023-02-08T10:49:12.361Z,32.50
2023-02-08T10:50:12.583Z,31.70
2023-02-08T10:51:12.737Z,33.80
2023-02-08T10:52:12.979Z,33.60
2023-02-08T10:53:13.093Z,34.40
2023-02-08T10:54:13.275Z,32.40
2023-02-08T10:55:13.432Z,35.50
2023-02-08T10:56:13.622Z,32.30
2023-02-08T10:57:13.754Z,35.00
2023-02-08T10:58:13.938Z,35.50
2023-02-08T10:59:14.120Z,34.10
2023-02-08T11:00:14.366Z,33.30
2023-02-08T11:01:14.522Z,34.60
2023-02-08T11:02:14.664Z,36.00
2023-02-08T11:03:14.804Z,33.20
2023-02-08T11:04:15.053Z,34.80
2023-02-08T11:05:15.333Z,33.70
2023-02-08T11:06:15.318Z,31.70
2023-02-08T11:07:15.476Z,33.10
2023-02-08T11:08:15.665Z,30.00
2023-02-08T11:09:15.855Z,29.20
2023-02-08T11:10:16.127Z,32.00
2023-02-08T11:11:16.217Z,32.10
2023-02-08T11:12:16.431Z,33.70
2023-02-08T11:13:16.577Z,34.70
2023-02-08T11:14:16.787Z,34.70
2023-02-08T11:15:16.993Z,36.40
2023-02-08T11:16:17.148Z,34.90
2023-02-08T11:17:17.290Z,34.00
2023-02-08T11:18:17.449Z,33.70
2023-02-08T11:19:17.595Z,35.00
2023-02-08T11:20:17.801Z,34.20
2023-02-08T11:21:17.957Z,34.10
2023-02-08T11:22:18.110Z,35.70
2023-02-08T11:23:18.318Z,35.90
2023-02-08T11:24:18.492Z,33.00
2023-02-08T11:25:18.683Z,34.20
2023-02-08T11:26:18.829Z,35.10
2023-02-08T11:27:18.999Z,35.90
2023-02-08T11:28:19.222Z,35.00
2023-02-08T11:29:19.352Z,37.00
2023-02-08T11:30:19.548Z,36.80
2023-02-08T11:31:19.775Z,34.70
2023-02-08T11:32:19.870Z,33.40
2023-02-08T11:33:20.047Z,35.70
2023-02-08T11:34:20.227Z,34.10
2023-02-08T11:35:20.365Z,33.70
2023-02-08T11:36:20.538Z,34.20
2023-02-08T11:37:20.708Z,34.90
2023-02-08T11:38:20.877Z,34.50
2023-02-08T11:39:21.069Z,34.30
2023-02-08T11:40:21.249Z,35.20
2023-02-08T11:41:21.431Z,36.60
2023-02-08T11:42:21.600Z,36.10
2023-02-08T11:43:21.780Z,36.70
2023-02-08T11:44:21.968Z,33.10
2023-02-08T11:45:22.140Z,35.10
2023-02-08T11:46:22.393Z,36.80
2023-02-08T11:47:22.500Z,34.20
2023-02-08T11:48:22.694Z,34.80
2023-02-08T11:49:22.861Z,35.20
2023-02-08T11:50:23.022Z,34.50
2023-02-08T11:51:23.212Z,35.60
2023-02-08T11:52:23.394Z,36.10
2023-02-08T11:53:23.566Z,33.40
2023-02-08T11:54:23.741Z,35.00
2023-02-08T11:55:23.905Z,32.90
2023-02-08T11:56:24.198Z,35.90
2023-02-08T11:57:24.252Z,38.00
2023-02-08T11:58:24.429Z,35.60
2023-02-08T11:59:24.575Z,33.80
2023-02-08T12:00:24.789Z,34.20
2023-02-08T12:01:24.943Z,34.70
2023-02-08T12:02:25.114Z,33.80
2023-02-08T12:03:25.315Z,34.20
2023-02-08T12:04:25.453Z,35.40
2023-02-08T12:05:25.642Z,33.70
2023-02-08T12:06:25.839Z,35.30
2023-02-08T12:07:26.024Z,34.20
2023-02-08T12:08:26.232Z,32.70
2023-02-08T12:09:26.388Z,32.20
2023-02-08T12:10:26.538Z,32.00
2023-02-08T12:11:26.726Z,33.70
2023-02-08T12:12:26.909Z,33.30
2023-02-08T12:13:27.107Z,31.40
2023-02-08T12:14:27.260Z,33.20
2023-02-08T12:15:27.472Z,32.40
2023-02-08T12:16:27.688Z,30.50
2023-02-08T12:17:27.753Z,31.40
2023-02-08T12:18:27.911Z,33.40
2023-02-08T12:19:28.058Z,33.30
2023-02-08T12:20:28.251Z,32.40
2023-02-08T12:21:28.383Z,32.60
2023-02-08T12:22:28.589Z,32.10
2023-02-08T12:23:28.701Z,34.00
2023-02-08T12:24:28.892Z,32.30
2023-02-08T12:25:29.087Z,32.50
2023-02-08T12:26:29.249Z,31.10
2023-02-08T12:27:29.442Z,31.40
2023-02-08T12:28:29.607Z,31.30
2023-02-08T12:29:45.714Z,31.50
2023-02-08T12:30:31.066Z,31.70
2023-02-08T12:31:30.282Z,30.60
2023-02-08T12:32:30.317Z,29.40
2023-02-08T12:33:30.514Z,26.90
2023-02-08T12:34:30.662Z,29.60
2023-02-08T12:35:43.308Z,29.90
2023-02-08T12:36:32.032Z,27.80
2023-02-08T12:37:31.183Z,26.90
2023-02-08T12:38:31.361Z,28.30
2023-02-08T12:39:31.593Z,28.20
2023-02-08T12:40:31.721Z,27.70
2023-02-08T12:41:31.908Z,28.20
2023-02-08T12:42:32.103Z,27.40
2023-02-08T12:43:32.296Z,27.60
2023-02-08T12:44:32.456Z,26.20
2023-02-08T12:45:32.594Z,27.80
2023-02-08T12:46:32.901Z,29.00
2023-02-08T12:47:32.964Z,28.10
2023-02-08T12:48:33.125Z,28.20
2023-02-08T12:49:33.311Z,27.10
2023-02-08T12:50:33.491Z,27.60
2023-02-08T12:51:33.645Z,27.30
2023-02-08T12:52:33.827Z,27.30
2023-02-08T12:53:33.969Z,28.70
2023-02-08T12:54:34.145Z,28.60